sensor_id;sensor_type;location;lat;lon;timestamp;temperature;humidity
22224;DHT22;11281;52.194;21.006;2023-06-22T00:02:14;18.70;99.90
22224;DHT22;11281;52.194;21.006;2023-06-22T00:06:15;18.80;99.90
22224;DHT22;11281;52.194;21.006;2023-06-22T00:10:16;18.70;99.90
22224;DHT22;11281;52.194;21.006;2023-06-22T00:14:18;18.60;99.90
22224;DHT22;11281;52.194;21.006;2023-06-22T00:18:20;18.50;99.90
22224;DHT22;11281;52.194;21.006;2023-06-22T00:22:22;18.50;99.90
22224;DHT22;11281;52.194;21.006;2023-06-22T00:26:29;18.40;99.90
22224;DHT22;11281;52.194;21.006;2023-06-22T00:30:32;18.40;99.90
22224;DHT22;11281;52.194;21.006;2023-06-22T00:34:33;18.30;99.90
22224;DHT22;11281;52.194;21.006;2023-06-22T00:38:35;18.30;99.90
22224;DHT22;11281;52.194;21.006;2023-06-22T00:42:41;18.20;99.90
22224;DHT22;11281;52.194;21.006;2023-06-22T00:46:44;18.30;99.90
22224;DHT22;11281;52.194;21.006;2023-06-22T00:50:45;18.30;99.90
22224;DHT22;11281;52.194;21.006;2023-06-22T00:54:51;18.30;99.90
22224;DHT22;11281;52.194;21.006;2023-06-22T00:58:53;18.20;99.90
22224;DHT22;11281;52.194;21.006;2023-06-22T01:02:54;18.20;99.90
22224;DHT22;11281;52.194;21.006;2023-06-22T01:07:10;18.20;99.90
22224;DHT22;11281;52.194;21.006;2023-06-22T01:11:40;18.10;99.90
22224;DHT22;11281;52.194;21.006;2023-06-22T01:16:00;18.10;99.90
22224;DHT22;11281;52.194;21.006;2023-06-22T01:20:05;18.10;99.90
22224;DHT22;11281;52.194;21.006;2023-06-22T01:28:49;18.00;99.90
22224;DHT22;11281;52.194;21.006;2023-06-22T01:32:53;18.00;99.90
22224;DHT22;11281;52.194;21.006;2023-06-22T01:36:55;18.00;99.90
22224;DHT22;11281;52.194;21.006;2023-06-22T01:40:57;17.90;99.90
22224;DHT22;11281;52.194;21.006;2023-06-22T01:45:00;17.80;99.90
22224;DHT22;11281;52.194;21.006;2023-06-22T01:49:04;17.80;99.90
22224;DHT22;11281;52.194;21.006;2023-06-22T01:53:07;17.90;99.90
22224;DHT22;11281;52.194;21.006;2023-06-22T01:57:09;17.80;99.90
22224;DHT22;11281;52.194;21.006;2023-06-22T02:01:14;17.80;99.90
22224;DHT22;11281;52.194;21.006;2023-06-22T02:05:18;18.00;99.90
22224;DHT22;11281;52.194;21.006;2023-06-22T02:09:22;17.80;99.90
22224;DHT22;11281;52.194;21.006;2023-06-22T02:13:25;17.80;99.90
22224;DHT22;11281;52.194;21.006;2023-06-22T02:17:27;17.90;99.90
22224;DHT22;11281;52.194;21.006;2023-06-22T02:21:30;17.90;99.90
22224;DHT22;11281;52.194;21.006;2023-06-22T02:25:33;17.90;99.90
22224;DHT22;11281;52.194;21.006;2023-06-22T02:29:35;17.90;99.90
22224;DHT22;11281;52.194;21.006;2023-06-22T02:33:37;17.90;99.90
22224;DHT22;11281;52.194;21.006;2023-06-22T02:37:39;18.00;99.90
22224;DHT22;11281;52.194;21.006;2023-06-22T02:41:42;18.00;99.90
22224;DHT22;11281;52.194;21.006;2023-06-22T02:45:44;18.10;99.90
22224;DHT22;11281;52.194;21.006;2023-06-22T02:49:46;18.20;99.90
22224;DHT22;11281;52.194;21.006;2023-06-22T02:53:47;18.30;99.90
22224;DHT22;11281;52.194;21.006;2023-06-22T02:57:49;18.40;99.90
22224;DHT22;11281;52.194;21.006;2023-06-22T03:01:54;18.50;99.90
22224;DHT22;11281;52.194;21.006;2023-06-22T03:05:55;18.70;99.90
22224;DHT22;11281;52.194;21.006;2023-06-22T03:09:57;18.80;99.90
22224;DHT22;11281;52.194;21.006;2023-06-22T03:14:01;18.80;99.90
22224;DHT22;11281;52.194;21.006;2023-06-22T03:18:03;18.90;99.90
22224;DHT22;11281;52.194;21.006;2023-06-22T03:22:05;18.90;99.90
22224;DHT22;11281;52.194;21.006;2023-06-22T03:26:09;18.90;99.90
22224;DHT22;11281;52.194;21.006;2023-06-22T03:30:12;18.90;99.90
22224;DHT22;11281;52.194;21.006;2023-06-22T03:34:14;18.90;99.90
22224;DHT22;11281;52.194;21.006;2023-06-22T03:38:16;19.00;99.90
22224;DHT22;11281;52.194;21.006;2023-06-22T03:42:18;19.20;99.90
22224;DHT22;11281;52.194;21.006;2023-06-22T03:46:20;19.20;99.90
22224;DHT22;11281;52.194;21.006;2023-06-22T03:50:22;19.30;99.90
22224;DHT22;11281;52.194;21.006;2023-06-22T03:54:23;19.30;99.90
22224;DHT22;11281;52.194;21.006;2023-06-22T03:58:25;19.40;99.90
22224;DHT22;11281;52.194;21.006;2023-06-22T04:02:27;19.50;99.90
22224;DHT22;11281;52.194;21.006;2023-06-22T04:06:28;19.50;99.90
22224;DHT22;11281;52.194;21.006;2023-06-22T04:10:31;19.60;99.90
22224;DHT22;11281;52.194;21.006;2023-06-22T04:14:33;19.70;99.90
22224;DHT22;11281;52.194;21.006;2023-06-22T04:18:35;19.80;99.90
22224;DHT22;11281;52.194;21.006;2023-06-22T04:22:37;19.80;99.90
22224;DHT22;11281;52.194;21.006;2023-06-22T04:26:38;19.90;99.90
22224;DHT22;11281;52.194;21.006;2023-06-22T04:30:42;20.00;99.90
22224;DHT22;11281;52.194;21.006;2023-06-22T04:34:48;20.10;99.90
22224;DHT22;11281;52.194;21.006;2023-06-22T04:38:49;20.20;99.90
22224;DHT22;11281;52.194;21.006;2023-06-22T04:42:54;20.50;99.90
22224;DHT22;11281;52.194;21.006;2023-06-22T04:47:01;20.60;99.90
22224;DHT22;11281;52.194;21.006;2023-06-22T04:51:04;20.70;99.90
22224;DHT22;11281;52.194;21.006;2023-06-22T04:55:06;20.70;99.90
22224;DHT22;11281;52.194;21.006;2023-06-22T04:59:08;20.50;99.90
22224;DHT22;11281;52.194;21.006;2023-06-22T05:03:14;20.40;99.90
22224;DHT22;11281;52.194;21.006;2023-06-22T05:07:20;20.50;99.90
22224;DHT22;11281;52.194;21.006;2023-06-22T05:11:22;20.60;99.90
22224;DHT22;11281;52.194;21.006;2023-06-22T05:15:24;20.60;99.90
22224;DHT22;11281;52.194;21.006;2023-06-22T05:19:29;20.80;99.90
22224;DHT22;11281;52.194;21.006;2023-06-22T05:23:34;20.80;99.90
22224;DHT22;11281;52.194;21.006;2023-06-22T05:27:36;21.10;99.90
22224;DHT22;11281;52.194;21.006;2023-06-22T05:31:40;21.10;99.90
22224;DHT22;11281;52.194;21.006;2023-06-22T05:35:42;21.20;99.90
22224;DHT22;11281;52.194;21.006;2023-06-22T05:39:44;21.20;99.90
22224;DHT22;11281;52.194;21.006;2023-06-22T05:43:45;21.30;99.90
22224;DHT22;11281;52.194;21.006;2023-06-22T05:47:48;21.20;99.90
22224;DHT22;11281;52.194;21.006;2023-06-22T05:51:49;21.10;99.90
22224;DHT22;11281;52.194;21.006;2023-06-22T05:55:51;21.30;99.90
22224;DHT22;11281;52.194;21.006;2023-06-22T05:59:53;21.50;99.90
22224;DHT22;11281;52.194;21.006;2023-06-22T06:03:55;21.40;99.90
22224;DHT22;11281;52.194;21.006;2023-06-22T06:07:58;21.40;99.90
22224;DHT22;11281;52.194;21.006;2023-06-22T06:12:00;21.20;99.90
22224;DHT22;11281;52.194;21.006;2023-06-22T06:16:04;21.20;99.90
22224;DHT22;11281;52.194;21.006;2023-06-22T06:20:06;21.30;99.90
22224;DHT22;11281;52.194;21.006;2023-06-22T06:24:09;21.40;99.90
22224;DHT22;11281;52.194;21.006;2023-06-22T06:28:11;21.50;99.90
22224;DHT22;11281;52.194;21.006;2023-06-22T06:32:13;21.50;99.90
22224;DHT22;11281;52.194;21.006;2023-06-22T06:36:15;21.70;99.90
22224;DHT22;11281;52.194;21.006;2023-06-22T06:40:18;21.80;99.90
22224;DHT22;11281;52.194;21.006;2023-06-22T06:44:20;22.70;99.90
22224;DHT22;11281;52.194;21.006;2023-06-22T06:48:23;23.70;99.90
22224;DHT22;11281;52.194;21.006;2023-06-22T06:52:25;24.20;99.90
22224;DHT22;11281;52.194;21.006;2023-06-22T06:56:26;24.60;99.90
22224;DHT22;11281;52.194;21.006;2023-06-22T07:00:29;24.40;99.90
22224;DHT22;11281;52.194;21.006;2023-06-22T07:04:30;24.30;99.90
22224;DHT22;11281;52.194;21.006;2023-06-22T07:08:32;24.40;99.90
22224;DHT22;11281;52.194;21.006;2023-06-22T07:12:34;24.10;99.90
22224;DHT22;11281;52.194;21.006;2023-06-22T07:16:36;24.00;99.90
22224;DHT22;11281;52.194;21.006;2023-06-22T07:20:38;24.10;99.90
22224;DHT22;11281;52.194;21.006;2023-06-22T07:24:40;24.60;99.90
22224;DHT22;11281;52.194;21.006;2023-06-22T07:28:42;24.70;99.90
22224;DHT22;11281;52.194;21.006;2023-06-22T07:32:44;25.00;99.90
22224;DHT22;11281;52.194;21.006;2023-06-22T07:36:46;24.40;99.90
22224;DHT22;11281;52.194;21.006;2023-06-22T07:40:48;24.80;99.90
22224;DHT22;11281;52.194;21.006;2023-06-22T07:44:49;24.60;99.90
22224;DHT22;11281;52.194;21.006;2023-06-22T07:48:51;24.90;99.90
22224;DHT22;11281;52.194;21.006;2023-06-22T07:52:53;25.00;99.90
22224;DHT22;11281;52.194;21.006;2023-06-22T07:56:55;25.20;99.90
22224;DHT22;11281;52.194;21.006;2023-06-22T08:00:56;24.40;99.90
22224;DHT22;11281;52.194;21.006;2023-06-22T08:04:58;24.90;99.90
22224;DHT22;11281;52.194;21.006;2023-06-22T08:08:59;24.90;99.90
22224;DHT22;11281;52.194;21.006;2023-06-22T08:13:01;24.50;99.90
22224;DHT22;11281;52.194;21.006;2023-06-22T08:17:02;24.90;99.90
22224;DHT22;11281;52.194;21.006;2023-06-22T08:21:05;24.70;99.90
22224;DHT22;11281;52.194;21.006;2023-06-22T08:25:07;24.90;99.90
22224;DHT22;11281;52.194;21.006;2023-06-22T08:29:09;25.20;99.90
22224;DHT22;11281;52.194;21.006;2023-06-22T08:33:10;25.20;99.90
22224;DHT22;11281;52.194;21.006;2023-06-22T08:37:12;25.10;99.90
22224;DHT22;11281;52.194;21.006;2023-06-22T08:41:14;25.40;99.90
22224;DHT22;11281;52.194;21.006;2023-06-22T08:45:16;25.60;99.90
22224;DHT22;11281;52.194;21.006;2023-06-22T08:49:18;25.30;99.90
22224;DHT22;11281;52.194;21.006;2023-06-22T08:53:20;25.50;99.90
22224;DHT22;11281;52.194;21.006;2023-06-22T08:57:22;25.40;99.90
22224;DHT22;11281;52.194;21.006;2023-06-22T09:01:24;25.50;99.90
22224;DHT22;11281;52.194;21.006;2023-06-22T09:05:25;25.70;99.90
22224;DHT22;11281;52.194;21.006;2023-06-22T09:09:27;26.00;99.90
22224;DHT22;11281;52.194;21.006;2023-06-22T09:13:30;25.70;99.90
22224;DHT22;11281;52.194;21.006;2023-06-22T09:17:32;25.80;99.90
22224;DHT22;11281;52.194;21.006;2023-06-22T09:21:34;26.00;99.90
22224;DHT22;11281;52.194;21.006;2023-06-22T09:25:36;25.80;99.90
22224;DHT22;11281;52.194;21.006;2023-06-22T09:29:37;25.70;99.90
22224;DHT22;11281;52.194;21.006;2023-06-22T09:33:40;25.90;99.90
22224;DHT22;11281;52.194;21.006;2023-06-22T09:37:42;26.20;99.90
22224;DHT22;11281;52.194;21.006;2023-06-22T09:41:44;26.30;99.90
22224;DHT22;11281;52.194;21.006;2023-06-22T09:45:45;26.20;99.90
22224;DHT22;11281;52.194;21.006;2023-06-22T09:49:47;26.30;99.90
22224;DHT22;11281;52.194;21.006;2023-06-22T09:53:52;26.20;99.90
22224;DHT22;11281;52.194;21.006;2023-06-22T09:57:57;26.30;99.90
22224;DHT22;11281;52.194;21.006;2023-06-22T10:01:59;26.20;99.90
22224;DHT22;11281;52.194;21.006;2023-06-22T10:06:00;26.40;99.90
22224;DHT22;11281;52.194;21.006;2023-06-22T10:10:02;26.40;99.90
22224;DHT22;11281;52.194;21.006;2023-06-22T10:14:03;26.60;99.90
22224;DHT22;11281;52.194;21.006;2023-06-22T10:18:05;26.60;99.90
22224;DHT22;11281;52.194;21.006;2023-06-22T10:22:06;26.80;99.90
22224;DHT22;11281;52.194;21.006;2023-06-22T10:26:08;26.70;99.90
22224;DHT22;11281;52.194;21.006;2023-06-22T10:30:11;26.70;99.90
22224;DHT22;11281;52.194;21.006;2023-06-22T10:34:14;26.90;99.90
22224;DHT22;11281;52.194;21.006;2023-06-22T10:38:15;26.80;99.90
22224;DHT22;11281;52.194;21.006;2023-06-22T10:42:17;26.70;99.90
22224;DHT22;11281;52.194;21.006;2023-06-22T10:46:19;26.30;99.90
22224;DHT22;11281;52.194;21.006;2023-06-22T10:50:20;26.80;99.90
22224;DHT22;11281;52.194;21.006;2023-06-22T10:54:22;27.00;99.90
22224;DHT22;11281;52.194;21.006;2023-06-22T10:58:23;27.20;99.90
22224;DHT22;11281;52.194;21.006;2023-06-22T11:02:25;27.00;99.90
22224;DHT22;11281;52.194;21.006;2023-06-22T11:06:29;27.10;99.90
22224;DHT22;11281;52.194;21.006;2023-06-22T11:10:30;27.40;99.90
22224;DHT22;11281;52.194;21.006;2023-06-22T11:14:32;27.20;99.90
22224;DHT22;11281;52.194;21.006;2023-06-22T11:18:37;27.20;99.90
22224;DHT22;11281;52.194;21.006;2023-06-22T11:22:42;27.10;99.90
22224;DHT22;11281;52.194;21.006;2023-06-22T11:26:44;26.60;99.90
22224;DHT22;11281;52.194;21.006;2023-06-22T11:30:45;26.90;99.90
22224;DHT22;11281;52.194;21.006;2023-06-22T11:34:47;26.60;99.90
22224;DHT22;11281;52.194;21.006;2023-06-22T11:38:49;27.10;99.90
22224;DHT22;11281;52.194;21.006;2023-06-22T11:42:50;27.20;99.90
22224;DHT22;11281;52.194;21.006;2023-06-22T11:46:52;26.50;99.90
22224;DHT22;11281;52.194;21.006;2023-06-22T11:50:54;26.40;99.90
22224;DHT22;11281;52.194;21.006;2023-06-22T11:54:56;26.40;99.90
22224;DHT22;11281;52.194;21.006;2023-06-22T11:58:58;26.40;99.90
22224;DHT22;11281;52.194;21.006;2023-06-22T12:03:00;26.30;99.90
22224;DHT22;11281;52.194;21.006;2023-06-22T12:07:02;26.20;99.90
22224;DHT22;11281;52.194;21.006;2023-06-22T12:11:04;26.30;99.90
22224;DHT22;11281;52.194;21.006;2023-06-22T12:15:05;27.10;99.90
22224;DHT22;11281;52.194;21.006;2023-06-22T12:19:08;26.90;99.90
22224;DHT22;11281;52.194;21.006;2023-06-22T12:23:10;27.10;99.90
22224;DHT22;11281;52.194;21.006;2023-06-22T12:27:12;27.00;99.90
22224;DHT22;11281;52.194;21.006;2023-06-22T12:31:14;27.20;99.90
22224;DHT22;11281;52.194;21.006;2023-06-22T12:35:16;27.20;99.90
22224;DHT22;11281;52.194;21.006;2023-06-22T12:39:17;27.40;99.90
22224;DHT22;11281;52.194;21.006;2023-06-22T12:43:19;27.30;99.90
22224;DHT22;11281;52.194;21.006;2023-06-22T12:47:21;27.40;99.90
22224;DHT22;11281;52.194;21.006;2023-06-22T12:51:22;27.10;99.90
22224;DHT22;11281;52.194;21.006;2023-06-22T12:55:24;27.20;99.90
22224;DHT22;11281;52.194;21.006;2023-06-22T12:59:26;27.30;99.90
22224;DHT22;11281;52.194;21.006;2023-06-22T13:03:28;27.40;99.10
22224;DHT22;11281;52.194;21.006;2023-06-22T13:07:29;27.30;99.90
22224;DHT22;11281;52.194;21.006;2023-06-22T13:11:31;27.50;99.90
22224;DHT22;11281;52.194;21.006;2023-06-22T13:15:33;27.40;99.50
22224;DHT22;11281;52.194;21.006;2023-06-22T13:19:35;26.90;99.90
22224;DHT22;11281;52.194;21.006;2023-06-22T13:23:37;27.00;99.90
22224;DHT22;11281;52.194;21.006;2023-06-22T13:27:40;27.20;97.90
22224;DHT22;11281;52.194;21.006;2023-06-22T13:31:42;27.30;97.00
22224;DHT22;11281;52.194;21.006;2023-06-22T13:35:44;27.40;97.20
22224;DHT22;11281;52.194;21.006;2023-06-22T13:39:45;27.20;97.10
22224;DHT22;11281;52.194;21.006;2023-06-22T13:43:47;27.20;98.40
22224;DHT22;11281;52.194;21.006;2023-06-22T13:47:48;27.30;98.20
22224;DHT22;11281;52.194;21.006;2023-06-22T13:51:50;27.20;98.40
22224;DHT22;11281;52.194;21.006;2023-06-22T13:55:52;27.40;98.60
22224;DHT22;11281;52.194;21.006;2023-06-22T13:59:53;27.50;97.30
22224;DHT22;11281;52.194;21.006;2023-06-22T14:03:55;27.20;99.10
22224;DHT22;11281;52.194;21.006;2023-06-22T14:07:57;27.30;96.70
22224;DHT22;11281;52.194;21.006;2023-06-22T14:12:03;27.20;95.80
22224;DHT22;11281;52.194;21.006;2023-06-22T14:16:06;27.40;95.70
22224;DHT22;11281;52.194;21.006;2023-06-22T14:20:08;27.70;95.20
22224;DHT22;11281;52.194;21.006;2023-06-22T14:24:10;27.40;94.30
22224;DHT22;11281;52.194;21.006;2023-06-22T14:28:12;27.30;94.50
22224;DHT22;11281;52.194;21.006;2023-06-22T14:32:14;27.10;93.50
22224;DHT22;11281;52.194;21.006;2023-06-22T14:36:16;27.30;96.10
22224;DHT22;11281;52.194;21.006;2023-06-22T14:40:20;27.40;94.60
22224;DHT22;11281;52.194;21.006;2023-06-22T14:44:22;27.40;95.30
22224;DHT22;11281;52.194;21.006;2023-06-22T14:48:24;27.70;95.90
22224;DHT22;11281;52.194;21.006;2023-06-22T14:52:26;27.70;95.90
22224;DHT22;11281;52.194;21.006;2023-06-22T14:56:28;27.90;95.20
22224;DHT22;11281;52.194;21.006;2023-06-22T15:00:30;27.90;95.00
22224;DHT22;11281;52.194;21.006;2023-06-22T15:04:32;27.60;93.50
22224;DHT22;11281;52.194;21.006;2023-06-22T15:08:42;27.50;91.30
22224;DHT22;11281;52.194;21.006;2023-06-22T15:12:43;27.70;93.50
22224;DHT22;11281;52.194;21.006;2023-06-22T15:16:45;27.50;92.50
22224;DHT22;11281;52.194;21.006;2023-06-22T15:20:46;27.30;96.30
22224;DHT22;11281;52.194;21.006;2023-06-22T15:24:49;26.60;98.20
22224;DHT22;11281;52.194;21.006;2023-06-22T15:28:54;26.20;99.80
22224;DHT22;11281;52.194;21.006;2023-06-22T15:32:57;26.00;99.90
22224;DHT22;11281;52.194;21.006;2023-06-22T15:36:59;25.90;99.90
22224;DHT22;11281;52.194;21.006;2023-06-22T15:41:01;25.80;99.90
22224;DHT22;11281;52.194;21.006;2023-06-22T15:45:04;26.30;99.90
22224;DHT22;11281;52.194;21.006;2023-06-22T15:49:07;26.10;99.90
22224;DHT22;11281;52.194;21.006;2023-06-22T15:53:09;25.90;99.90
22224;DHT22;11281;52.194;21.006;2023-06-22T15:57:10;25.80;99.90
22224;DHT22;11281;52.194;21.006;2023-06-22T16:01:14;25.60;99.90
22224;DHT22;11281;52.194;21.006;2023-06-22T16:05:16;25.50;99.90
22224;DHT22;11281;52.194;21.006;2023-06-22T16:09:17;25.40;99.90
22224;DHT22;11281;52.194;21.006;2023-06-22T16:13:19;25.70;99.90
22224;DHT22;11281;52.194;21.006;2023-06-22T16:17:21;25.90;99.90
22224;DHT22;11281;52.194;21.006;2023-06-22T16:21:23;26.10;99.90
22224;DHT22;11281;52.194;21.006;2023-06-22T16:25:26;26.20;99.90
22224;DHT22;11281;52.194;21.006;2023-06-22T16:29:28;26.30;99.90
22224;DHT22;11281;52.194;21.006;2023-06-22T16:33:30;26.30;99.90
22224;DHT22;11281;52.194;21.006;2023-06-22T16:37:32;26.30;99.90
22224;DHT22;11281;52.194;21.006;2023-06-22T16:41:34;26.30;99.90
22224;DHT22;11281;52.194;21.006;2023-06-22T16:45:35;26.20;99.90
22224;DHT22;11281;52.194;21.006;2023-06-22T16:49:37;26.10;99.90
22224;DHT22;11281;52.194;21.006;2023-06-22T16:53:40;26.00;99.90
22224;DHT22;11281;52.194;21.006;2023-06-22T16:57:42;25.90;99.90
22224;DHT22;11281;52.194;21.006;2023-06-22T17:01:51;25.80;99.90
22224;DHT22;11281;52.194;21.006;2023-06-22T17:05:56;25.70;99.90
22224;DHT22;11281;52.194;21.006;2023-06-22T17:09:59;25.50;99.90
22224;DHT22;11281;52.194;21.006;2023-06-22T17:14:00;25.40;99.90
22224;DHT22;11281;52.194;21.006;2023-06-22T17:18:06;25.20;99.90
22224;DHT22;11281;52.194;21.006;2023-06-22T17:22:08;25.10;99.90
22224;DHT22;11281;52.194;21.006;2023-06-22T17:26:10;24.80;99.90
22224;DHT22;11281;52.194;21.006;2023-06-22T17:30:13;24.70;99.90
22224;DHT22;11281;52.194;21.006;2023-06-22T17:34:17;24.60;99.90
22224;DHT22;11281;52.194;21.006;2023-06-22T17:38:22;24.40;99.90
22224;DHT22;11281;52.194;21.006;2023-06-22T17:42:24;24.30;99.90
22224;DHT22;11281;52.194;21.006;2023-06-22T17:46:36;24.20;99.90
22224;DHT22;11281;52.194;21.006;2023-06-22T17:50:40;24.00;99.90
22224;DHT22;11281;52.194;21.006;2023-06-22T17:54:43;23.90;99.90
22224;DHT22;11281;52.194;21.006;2023-06-22T17:58:52;23.70;99.90
22224;DHT22;11281;52.194;21.006;2023-06-22T18:02:55;23.50;99.90
22224;DHT22;11281;52.194;21.006;2023-06-22T18:06:57;23.30;99.90
22224;DHT22;11281;52.194;21.006;2023-06-22T18:11:02;23.20;99.90
22224;DHT22;11281;52.194;21.006;2023-06-22T18:15:07;23.10;99.90
22224;DHT22;11281;52.194;21.006;2023-06-22T18:19:09;22.80;99.90
22224;DHT22;11281;52.194;21.006;2023-06-22T18:23:11;22.70;99.90
22224;DHT22;11281;52.194;21.006;2023-06-22T18:27:14;22.40;99.90
22224;DHT22;11281;52.194;21.006;2023-06-22T18:31:18;22.20;99.90
22224;DHT22;11281;52.194;21.006;2023-06-22T18:35:21;21.90;99.90
22224;DHT22;11281;52.194;21.006;2023-06-22T18:39:23;21.70;99.90
22224;DHT22;11281;52.194;21.006;2023-06-22T18:43:25;21.50;99.90
22224;DHT22;11281;52.194;21.006;2023-06-22T18:47:28;21.30;99.90
22224;DHT22;11281;52.194;21.006;2023-06-22T18:51:49;21.20;99.90
22224;DHT22;11281;52.194;21.006;2023-06-22T18:56:11;20.90;99.90
22224;DHT22;11281;52.194;21.006;2023-06-22T19:00:14;20.60;99.90
22224;DHT22;11281;52.194;21.006;2023-06-22T19:04:16;20.40;99.90
22224;DHT22;11281;52.194;21.006;2023-06-22T19:08:20;20.20;99.90
22224;DHT22;11281;52.194;21.006;2023-06-22T19:12:24;20.00;99.90
22224;DHT22;11281;52.194;21.006;2023-06-22T19:16:29;19.90;99.90
22224;DHT22;11281;52.194;21.006;2023-06-22T19:20:32;19.70;99.90
22224;DHT22;11281;52.194;21.006;2023-06-22T19:24:48;19.60;99.90
22224;DHT22;11281;52.194;21.006;2023-06-22T19:28:53;19.40;99.90
22224;DHT22;11281;52.194;21.006;2023-06-22T19:32:56;19.30;99.90
22224;DHT22;11281;52.194;21.006;2023-06-22T19:36:59;19.10;99.90
22224;DHT22;11281;52.194;21.006;2023-06-22T19:41:01;19.00;99.90
22224;DHT22;11281;52.194;21.006;2023-06-22T19:45:03;18.90;99.90
22224;DHT22;11281;52.194;21.006;2023-06-22T19:49:05;18.80;99.90
22224;DHT22;11281;52.194;21.006;2023-06-22T19:53:08;18.70;99.90
22224;DHT22;11281;52.194;21.006;2023-06-22T19:57:14;18.50;99.90
22224;DHT22;11281;52.194;21.006;2023-06-22T20:01:16;18.50;99.90
22224;DHT22;11281;52.194;21.006;2023-06-22T20:05:20;18.30;99.90
22224;DHT22;11281;52.194;21.006;2023-06-22T20:09:22;18.20;99.90
22224;DHT22;11281;52.194;21.006;2023-06-22T20:13:24;18.10;99.90
22224;DHT22;11281;52.194;21.006;2023-06-22T20:17:26;18.00;99.90
22224;DHT22;11281;52.194;21.006;2023-06-22T20:21:28;17.90;99.90
22224;DHT22;11281;52.194;21.006;2023-06-22T20:25:38;17.80;99.90
22224;DHT22;11281;52.194;21.006;2023-06-22T20:29:42;17.70;99.90
22224;DHT22;11281;52.194;21.006;2023-06-22T20:33:43;17.70;99.90
22224;DHT22;11281;52.194;21.006;2023-06-22T20:37:46;17.50;99.90
22224;DHT22;11281;52.194;21.006;2023-06-22T20:41:49;17.50;99.90
22224;DHT22;11281;52.194;21.006;2023-06-22T20:45:54;17.40;99.90
22224;DHT22;11281;52.194;21.006;2023-06-22T20:49:56;17.30;99.90
22224;DHT22;11281;52.194;21.006;2023-06-22T20:54:00;17.20;99.90
22224;DHT22;11281;52.194;21.006;2023-06-22T20:58:05;17.20;99.90
22224;DHT22;11281;52.194;21.006;2023-06-22T21:02:08;17.10;99.90
22224;DHT22;11281;52.194;21.006;2023-06-22T21:06:10;17.10;99.90
22224;DHT22;11281;52.194;21.006;2023-06-22T21:10:13;17.00;99.90
22224;DHT22;11281;52.194;21.006;2023-06-22T21:14:16;16.90;99.90
22224;DHT22;11281;52.194;21.006;2023-06-22T21:18:17;17.00;99.90
22224;DHT22;11281;52.194;21.006;2023-06-22T21:22:19;16.90;99.90
22224;DHT22;11281;52.194;21.006;2023-06-22T21:26:21;16.80;99.90
22224;DHT22;11281;52.194;21.006;2023-06-22T21:30:23;16.90;99.90
22224;DHT22;11281;52.194;21.006;2023-06-22T21:34:25;16.70;99.90
22224;DHT22;11281;52.194;21.006;2023-06-22T21:38:27;16.70;99.90
22224;DHT22;11281;52.194;21.006;2023-06-22T21:42:28;16.60;99.90
22224;DHT22;11281;52.194;21.006;2023-06-22T21:46:30;16.60;99.90
22224;DHT22;11281;52.194;21.006;2023-06-22T21:50:31;16.60;99.90
22224;DHT22;11281;52.194;21.006;2023-06-22T21:54:33;16.60;99.90
22224;DHT22;11281;52.194;21.006;2023-06-22T21:58:34;16.60;99.90
22224;DHT22;11281;52.194;21.006;2023-06-22T22:07:38;16.50;99.90
22224;DHT22;11281;52.194;21.006;2023-06-22T22:11:39;16.40;99.90
22224;DHT22;11281;52.194;21.006;2023-06-22T22:15:41;16.30;99.90
22224;DHT22;11281;52.194;21.006;2023-06-22T22:19:42;16.30;99.90
22224;DHT22;11281;52.194;21.006;2023-06-22T22:23:44;16.30;99.90
22224;DHT22;11281;52.194;21.006;2023-06-22T22:27:46;16.20;99.90
22224;DHT22;11281;52.194;21.006;2023-06-22T22:31:47;16.10;99.90
22224;DHT22;11281;52.194;21.006;2023-06-22T22:35:50;16.10;99.90
22224;DHT22;11281;52.194;21.006;2023-06-22T22:39:51;16.00;99.90
22224;DHT22;11281;52.194;21.006;2023-06-22T22:43:57;15.90;99.90
22224;DHT22;11281;52.194;21.006;2023-06-22T22:47:59;15.80;99.90
22224;DHT22;11281;52.194;21.006;2023-06-22T22:52:01;15.80;99.90
22224;DHT22;11281;52.194;21.006;2023-06-22T22:56:05;15.80;99.90
22224;DHT22;11281;52.194;21.006;2023-06-22T23:00:08;15.80;99.90
22224;DHT22;11281;52.194;21.006;2023-06-22T23:04:13;15.70;99.90
22224;DHT22;11281;52.194;21.006;2023-06-22T23:08:19;15.70;99.90
22224;DHT22;11281;52.194;21.006;2023-06-22T23:12:23;15.70;99.90
22224;DHT22;11281;52.194;21.006;2023-06-22T23:16:28;15.70;99.90
22224;DHT22;11281;52.194;21.006;2023-06-22T23:20:31;15.70;99.90
22224;DHT22;11281;52.194;21.006;2023-06-22T23:24:32;15.70;99.90
22224;DHT22;11281;52.194;21.006;2023-06-22T23:28:34;15.80;99.90
22224;DHT22;11281;52.194;21.006;2023-06-22T23:32:37;15.80;99.90
22224;DHT22;11281;52.194;21.006;2023-06-22T23:36:39;15.70;99.90
22224;DHT22;11281;52.194;21.006;2023-06-22T23:40:41;15.80;99.90
22224;DHT22;11281;52.194;21.006;2023-06-22T23:44:43;15.80;99.90
22224;DHT22;11281;52.194;21.006;2023-06-22T23:48:44;15.90;99.90
22224;DHT22;11281;52.194;21.006;2023-06-22T23:52:47;16.10;99.90
22224;DHT22;11281;52.194;21.006;2023-06-22T23:56:52;16.10;99.90
